Time;durP1;ratioP1;P1;durP2;ratioP2;P2;SDS_P1;SDS_P2;PMS_P1;PMS_P2;Temp;Humidity;BMP_temperature;BMP_pressure;BME280_temperature;BME280_humidity;BME280_pressure;Samples;Min_cycle;Max_cycle;Signal;HPM_P1;HPM_P2
2022/03/17 06:47:17;;;;;;;;;;;;;;;8.17;100.00;99308.84;5480685;24;20373;-68
2022/03/17 06:49:45;;;;;;;;;;;;;;;8.19;100.00;99312.88;4845568;29;20251;-69
2022/03/17 06:52:13;;;;;;;;;;;;;;;8.26;100.00;99317.84;4844891;29;19950;-69
2022/03/17 06:54:40;;;;;;;;;;;;;;;8.17;100.00;99318.00;4843797;29;19952;-69
2022/03/17 06:57:08;;;;;;;;;;;;;;;8.27;100.00;99320.31;4845120;29;19958;-69
2022/03/17 06:59:35;;;;;;;;;;;;;;;8.32;100.00;99322.00;4845061;29;19952;-69
2022/03/17 07:02:03;;;;;;;;;;;;;;;8.21;100.00;99320.91;4845083;29;19958;-69
2022/03/17 07:04:30;;;;;;;;;;;;;;;8.08;100.00;99324.91;4844962;29;19956;-69
2022/03/17 07:06:57;;;;;;;;;;;;;;;8.17;100.00;99326.38;4847579;29;19974;-69
2022/03/17 07:09:26;;;;;;;;;;;;;;;8.17;100.00;99333.91;4848020;29;19985;-69
2022/03/17 07:11:53;;;;;;;;;;;;;;;8.19;100.00;99335.19;4843686;29;19959;-69
2022/03/17 07:14:20;;;;;;;;;;;;;;;8.28;100.00;99340.63;4840849;29;19949;-68
2022/03/17 07:16:47;;;;;;;;;;;;;;;8.29;100.00;99345.03;4845865;29;19949;-68
2022/03/17 07:19:15;;;;;;;;;;;;;;;8.17;100.00;99343.09;4846575;29;20042;-68
2022/03/17 07:21:43;;;;;;;;;;;;;;;8.22;100.00;99353.97;4830752;29;19955;-68
2022/03/17 07:24:10;;;;;;;;;;;;;;;8.23;100.00;99352.81;4844599;29;19960;-69
2022/03/17 07:26:41;;;;;;;;;;;;;;;8.18;100.00;99355.84;4820562;29;19976;-69
2022/03/17 07:29:09;;;;;;;;;;;;;;;8.12;100.00;99357.28;4841568;29;19954;-69
2022/03/17 07:31:37;;;;;;;;;;;;;;;8.26;100.00;99354.09;4840940;29;19975;-69
2022/03/17 07:34:05;;;;;;;;;;;;;;;8.19;100.00;99351.88;4840394;29;19953;-69
2022/03/17 07:36:32;;;;;;;;;;;;;;;8.11;100.00;99357.63;4837497;29;19951;-69
2022/03/17 07:39:03;;;;;;;;;;;;;;;8.00;100.00;99351.75;4840791;29;19959;-69
2022/03/17 07:41:31;;;;;;;;;;;;;;;8.16;100.00;99355.41;4839157;29;19954;-69
2022/03/17 07:44:00;;;;;;;;;;;;;;;8.21;100.00;99354.34;4837529;29;19957;-69
2022/03/17 07:46:48;;;;;;;;;;;;;;;8.25;100.00;99358.84;4836073;29;19967;-69
2022/03/17 07:49:32;;;;;;;;;;;;;;;8.19;100.00;99362.25;4819406;29;19981;-69
2022/03/17 07:51:59;;;;;;;;;;;;;;;8.24;100.00;99362.00;4829142;29;19950;-69
2022/03/17 07:54:27;;;;;;;;;;;;;;;8.20;100.00;99364.66;4829080;29;19951;-69
2022/03/17 07:56:55;;;;;;;;;;;;;;;8.12;100.00;99365.63;4823663;29;19952;-69
2022/03/17 07:59:24;;;;;;;;;;;;;;;8.09;100.00;99365.53;4826581;29;19959;-69
2022/03/17 08:01:51;;;;;;;;;;;;;;;8.08;100.00;99364.72;4824950;29;19959;-69
2022/03/17 08:04:19;;;;;;;;;;;;;;;8.11;100.00;99363.22;4828021;29;19980;-69
2022/03/17 08:06:46;;;;;;;;;;;;;;;8.15;100.00;99362.13;4828530;29;19969;-69
2022/03/17 08:09:13;;;;;;;;;;;;;;;8.19;100.00;99368.59;4827569;29;20337;-69
2022/03/17 08:11:41;;;;;;;;;;;;;;;8.21;100.00;99371.06;4826800;29;19955;-69
2022/03/17 08:14:08;;;;;;;;;;;;;;;8.30;100.00;99372.53;4826387;29;19948;-69
2022/03/17 08:16:35;;;;;;;;;;;;;;;8.17;100.00;99379.31;4827786;29;19982;-69
2022/03/17 08:19:03;;;;;;;;;;;;;;;8.11;100.00;99380.75;4827183;29;19964;-69
2022/03/17 08:21:31;;;;;;;;;;;;;;;8.30;100.00;99383.69;4826275;29;20007;-69
2022/03/17 08:23:59;;;;;;;;;;;;;;;8.33;100.00;99388.56;4824620;29;19950;-69
2022/03/17 08:26:27;;;;;;;;;;;;;;;8.34;100.00;99392.94;4825245;29;19957;-69
2022/03/17 08:28:54;;;;;;;;;;;;;;;8.29;100.00;99384.84;4819906;29;19967;-69
2022/03/17 08:31:21;;;;;;;;;;;;;;;8.24;100.00;99385.06;4825780;29;20251;-69
2022/03/17 08:33:50;;;;;;;;;;;;;;;8.30;100.00;99394.03;5269512;24;19974;-69
2022/03/17 08:36:17;;;;;;;;;;;;;;;8.35;100.00;99391.78;4809644;29;19953;-69
2022/03/17 08:38:45;;;;;;;;;;;;;;;8.30;100.00;99389.25;4804224;29;19953;-70
2022/03/17 08:41:12;;;;;;;;;;;;;;;8.32;100.00;99397.25;4822701;29;20262;-69
2022/03/17 08:43:39;;;;;;;;;;;;;;;8.29;100.00;99396.00;4828787;29;19958;-69
2022/03/17 08:51:38;;;;;;;;;;;;;;;8.47;100.00;99408.44;4809056;29;19959;-69
2022/03/17 08:54:06;;;;;;;;;;;;;;;8.48;100.00;99398.13;4805869;29;19959;-69
2022/03/17 08:56:34;;;;;;;;;;;;;;;8.49;100.00;99396.94;4805582;29;19970;-69
2022/03/17 08:59:01;;;;;;;;;;;;;;;8.51;100.00;99406.56;4793029;29;19949;-69
2022/03/17 09:01:28;;;;;;;;;;;;;;;8.54;100.00;99402.25;4793327;29;20329;-69
2022/03/17 09:03:56;;;;;;;;;;;;;;;8.65;100.00;99402.53;4809242;29;20249;-69
2022/03/17 09:06:24;;;;;;;;;;;;;;;8.65;100.00;99403.34;4795021;29;20258;-69
2022/03/17 09:08:52;;;;;;;;;;;;;;;8.61;100.00;99399.63;4809188;29;19973;-69
2022/03/17 09:11:19;;;;;;;;;;;;;;;8.72;100.00;99406.31;4805059;29;19959;-69
2022/03/17 09:13:49;;;;;;;;;;;;;;;8.83;100.00;99395.41;4808814;29;20241;-69
2022/03/17 09:16:17;;;;;;;;;;;;;;;8.64;100.00;99392.53;4808956;29;20255;-69
2022/03/17 09:18:45;;;;;;;;;;;;;;;8.66;100.00;99387.41;4809168;29;20255;-69
2022/03/17 09:21:12;;;;;;;;;;;;;;;8.66;100.00;99391.00;4808484;29;19951;-69
2022/03/17 09:23:39;;;;;;;;;;;;;;;8.72;100.00;99397.13;4808630;29;20358;-69
2022/03/17 09:26:07;;;;;;;;;;;;;;;8.70;100.00;99391.94;4809073;29;19950;-69
2022/03/17 09:28:35;;;;;;;;;;;;;;;8.79;100.00;99395.34;4807930;29;19973;-69
2022/03/17 09:31:02;;;;;;;;;;;;;;;8.85;100.00;99395.91;4807741;29;19956;-69
2022/03/17 09:33:29;;;;;;;;;;;;;;;8.94;100.00;99394.53;4808369;29;19955;-69
2022/03/17 09:35:57;;;;;;;;;;;;;;;8.99;100.00;99394.28;4808996;29;19961;-69
2022/03/17 09:38:24;;;;;;;;;;;;;;;9.03;100.00;99394.34;4807800;29;19950;-69
2022/03/17 09:40:52;;;;;;;;;;;;;;;9.04;100.00;99396.78;4808437;29;20256;-69
2022/03/17 09:43:21;;;;;;;;;;;;;;;9.08;100.00;99405.22;4808106;29;19955;-69
2022/03/17 09:45:50;;;;;;;;;;;;;;;9.15;100.00;99394.25;4808225;29;19949;-69
2022/03/17 09:48:20;;;;;;;;;;;;;;;9.22;100.00;99402.78;4808456;29;19970;-69
2022/03/17 09:50:48;;;;;;;;;;;;;;;9.24;100.00;99401.25;4791958;29;19961;-69
2022/03/17 09:53:16;;;;;;;;;;;;;;;9.09;100.00;99401.28;4807716;29;19950;-69
2022/03/17 09:55:43;;;;;;;;;;;;;;;9.11;100.00;99405.34;4808442;29;19950;-69
2022/03/17 09:58:11;;;;;;;;;;;;;;;9.12;100.00;99408.94;4808350;29;19956;-69
2022/03/17 10:00:48;;;;;;;;;;;;;;;9.12;100.00;99408.94;4807601;29;19954;-69
2022/03/17 10:03:22;;;;;;;;;;;;;;;9.19;100.00;99403.53;4807630;29;19961;-69
2022/03/17 10:05:49;;;;;;;;;;;;;;;9.22;100.00;99402.78;4807780;29;19961;-69
2022/03/17 10:08:20;;;;;;;;;;;;;;;9.20;100.00;99405.94;4806745;29;19978;-69
2022/03/17 10:10:49;;;;;;;;;;;;;;;9.29;100.00;99411.34;4790299;30;19959;-69
2022/03/17 10:13:17;;;;;;;;;;;;;;;9.19;100.00;99411.91;4800066;29;19986;-69
2022/03/17 10:15:46;;;;;;;;;;;;;;;9.17;100.00;99414.22;4807916;29;19968;-69
2022/03/17 10:18:23;;;;;;;;;;;;;;;9.15;100.00;99409.00;4808062;29;20336;-69
2022/03/17 10:21:07;;;;;;;;;;;;;;;9.21;100.00;99406.75;4807200;29;19955;-69
2022/03/17 10:23:42;;;;;;;;;;;;;;;9.17;100.00;99412.25;4804296;29;19957;-69
2022/03/17 10:26:10;;;;;;;;;;;;;;;9.15;100.00;99413.78;4790408;30;19960;-69
2022/03/17 10:28:40;;;;;;;;;;;;;;;9.23;100.00;99410.81;4809449;29;19965;-69
2022/03/17 10:31:08;;;;;;;;;;;;;;;9.23;100.00;99415.56;4825821;29;19950;-69
2022/03/17 10:33:35;;;;;;;;;;;;;;;9.27;100.00;99412.88;4825992;29;19987;-69
2022/03/17 10:36:15;;;;;;;;;;;;;;;9.19;100.00;99420.28;4826387;29;19950;-69
2022/03/17 10:38:43;;;;;;;;;;;;;;;9.10;100.00;99414.03;4826144;29;19952;-69
2022/03/17 10:41:12;;;;;;;;;;;;;;;9.09;100.00;99410.47;4825370;29;19982;-69
2022/03/17 10:43:42;;;;;;;;;;;;;;;9.15;100.00;99413.78;4830161;29;19959;-69
2022/03/17 10:46:15;;;;;;;;;;;;;;;9.11;100.00;99410.09;4829834;29;19967;-69
2022/03/17 10:48:59;;;;;;;;;;;;;;;9.21;100.00;99417.91;4829776;29;19969;-69
2022/03/17 10:51:30;;;;;;;;;;;;;;;9.19;100.00;99409.09;4829416;29;19951;-69
2022/03/17 10:54:02;;;;;;;;;;;;;;;9.23;100.00;99415.56;4811037;29;19959;-69
2022/03/17 10:56:29;;;;;;;;;;;;;;;9.15;100.00;99416.56;4811672;29;19949;-69
2022/03/17 10:58:58;;;;;;;;;;;;;;;9.20;100.00;99413.50;4810561;29;19955;-69
2022/03/17 11:01:44;;;;;;;;;;;;;;;9.27;100.00;99410.88;4810672;29;19988;-69
2022/03/17 11:04:12;;;;;;;;;;;;;;;9.32;100.00;99412.59;4807134;29;20323;-69
2022/03/17 11:06:40;;;;;;;;;;;;;;;9.26;100.00;99414.84;4797349;29;19961;-69
2022/03/17 11:09:08;;;;;;;;;;;;;;;9.30;100.00;99414.91;4793298;30;19976;-69
2022/03/17 11:11:37;;;;;;;;;;;;;;;9.34;100.00;99411.03;4778709;29;19958;-69
2022/03/17 11:14:05;;;;;;;;;;;;;;;9.44;100.00;99416.06;4810856;29;19952;-69
2022/03/17 11:16:37;;;;;;;;;;;;;;;9.50;100.00;99414.63;4813374;29;19967;-69
2022/03/17 11:19:06;;;;;;;;;;;;;;;9.49;100.00;99410.22;4801233;29;19956;-69
2022/03/17 11:21:33;;;;;;;;;;;;;;;9.60;100.00;99405.69;4811102;29;19947;-69
2022/03/17 11:24:04;;;;;;;;;;;;;;;9.67;100.00;99416.19;4810310;29;19950;-69
2022/03/17 11:26:34;;;;;;;;;;;;;;;9.76;100.00;99417.63;4810569;29;19960;-69
2022/03/17 11:29:12;;;;;;;;;;;;;;;9.81;100.00;99408.13;4794754;29;19981;-69
2022/03/17 11:31:56;;;;;;;;;;;;;;;9.78;100.00;99408.88;4812391;29;19958;-69
2022/03/17 11:34:38;;;;;;;;;;;;;;;9.77;100.00;99412.84;4810242;29;19982;-69
2022/03/17 11:37:26;;;;;;;;;;;;;;;9.88;100.00;99411.06;4810771;29;20141;-69
2022/03/17 11:40:02;;;;;;;;;;;;;;;9.90;100.00;99412.31;4792527;30;19956;-69
2022/03/17 11:42:34;;;;;;;;;;;;;;;9.85;100.00;99411.84;4792603;30;19950;-69
2022/03/17 11:45:11;;;;;;;;;;;;;;;9.75;100.00;99415.19;4793298;30;19962;-69
2022/03/17 11:47:44;;;;;;;;;;;;;;;9.74;100.00;99407.97;4792845;30;19948;-69
2022/03/17 11:50:24;;;;;;;;;;;;;;;9.64;100.00;99408.53;4804840;29;20264;-69
2022/03/17 11:52:58;;;;;;;;;;;;;;;9.54;100.00;99403.53;4810555;29;20368;-69
2022/03/17 11:55:31;;;;;;;;;;;;;;;9.64;100.00;99408.53;4810839;29;19955;-69
2022/03/17 11:58:18;;;;;;;;;;;;;;;9.77;100.00;99402.47;4809513;29;19960;-69
2022/03/17 12:00:46;;;;;;;;;;;;;;;9.82;100.00;99398.59;4809517;29;19986;-69
2022/03/17 12:03:24;;;;;;;;;;;;;;;9.87;100.00;99404.69;4810304;29;19951;-69
2022/03/17 12:06:13;;;;;;;;;;;;;;;9.83;100.00;99398.22;4809926;29;19957;-69
2022/03/17 12:08:46;;;;;;;;;;;;;;;9.89;100.00;99401.53;4802745;29;19994;-69
2022/03/17 12:11:22;;;;;;;;;;;;;;;10.04;100.00;99402.63;4805044;29;19949;-69
2022/03/17 12:14:08;;;;;;;;;;;;;;;9.99;100.00;99392.56;4806999;29;19951;-69
2022/03/17 12:16:40;;;;;;;;;;;;;;;9.84;100.00;99399.03;4791057;30;20375;-69
2022/03/17 12:19:08;;;;;;;;;;;;;;;9.84;100.00;99394.25;4805768;29;19958;-69
2022/03/17 12:21:54;;;;;;;;;;;;;;;9.88;100.00;99397.91;4808520;29;20257;-69
2022/03/17 12:24:39;;;;;;;;;;;;;;;9.85;100.00;99392.28;4808717;29;19960;-69
2022/03/17 12:27:11;;;;;;;;;;;;;;;9.89;100.00;99393.97;4810110;29;19986;-69
2022/03/17 12:29:39;;;;;;;;;;;;;;;9.97;100.00;99382.94;4809863;29;19971;-69
2022/03/17 12:32:09;;;;;;;;;;;;;;;9.97;100.00;99375.38;4809384;29;20030;-69
2022/03/17 12:34:37;;;;;;;;;;;;;;;10.01;100.00;99379.03;4806355;29;19981;-69
2022/03/17 12:37:05;;;;;;;;;;;;;;;9.99;100.00;99375.00;4809986;29;19950;-69
2022/03/17 12:39:36;;;;;;;;;;;;;;;9.96;100.00;99367.34;4809691;29;19950;-69
2022/03/17 12:42:14;;;;;;;;;;;;;;;9.97;100.00;99371.75;4810017;29;19949;-69
2022/03/17 12:44:50;;;;;;;;;;;;;;;9.95;100.00;99369.34;4809190;29;19954;-69
2022/03/17 12:47:19;;;;;;;;;;;;;;;10.12;100.00;99362.53;4809763;29;19955;-69
2022/03/17 12:49:46;;;;;;;;;;;;;;;10.24;100.00;99365.97;4809509;29;19979;-69
2022/03/17 12:52:21;;;;;;;;;;;;;;;10.16;100.00;99357.81;4809651;29;20352;-69
2022/03/17 12:54:49;;;;;;;;;;;;;;;10.28;100.00;99352.84;4791367;30;20299;-69
2022/03/17 12:57:16;;;;;;;;;;;;;;;10.27;100.00;99348.44;4791585;30;19958;-69
2022/03/17 12:59:44;;;;;;;;;;;;;;;10.29;100.00;99342.50;4791991;30;20253;-69
2022/03/17 13:02:13;;;;;;;;;;;;;;;10.40;100.00;99347.09;4791198;30;19954;-69
2022/03/17 13:04:41;;;;;;;;;;;;;;;10.46;100.00;99348.41;4804102;29;19962;-69
2022/03/17 13:07:12;;;;;;;;;;;;;;;10.40;100.00;99341.50;4809394;29;19956;-69
2022/03/17 13:09:40;;;;;;;;;;;;;;;10.39;100.00;99339.09;4803898;29;19967;-69
2022/03/17 13:15:09;;;;;;;;;;;;;;;10.35;100.00;99332.59;4809575;29;19980;-69
2022/03/17 13:17:37;;;;;;;;;;;;;;;10.45;100.00;99344.00;4809827;29;19952;-69
2022/03/17 13:20:08;;;;;;;;;;;;;;;10.38;100.00;99337.47;4809638;29;19947;-69
2022/03/17 13:22:39;;;;;;;;;;;;;;;10.38;100.00;99345.84;4809482;29;19950;-69
2022/03/17 13:25:13;;;;;;;;;;;;;;;10.48;100.00;99343.25;4809414;29;19966;-69
2022/03/17 13:27:42;;;;;;;;;;;;;;;10.41;100.00;99339.53;4800424;29;19948;-69
2022/03/17 13:30:11;;;;;;;;;;;;;;;10.48;100.00;99329.28;4791337;30;19968;-69
2022/03/17 13:32:39;;;;;;;;;;;;;;;10.50;100.00;99334.47;4791339;29;19959;-69
2022/03/17 13:35:07;;;;;;;;;;;;;;;10.43;100.00;99329.59;4805793;29;19981;-69
2022/03/17 13:37:39;;;;;;;;;;;;;;;10.44;100.00;99330.41;4808419;29;19952;-69
2022/03/17 13:40:08;;;;;;;;;;;;;;;10.49;100.00;99330.88;4808986;29;19950;-69
2022/03/17 13:42:35;;;;;;;;;;;;;;;10.59;100.00;99331.47;4809279;29;20335;-69
2022/03/17 13:45:03;;;;;;;;;;;;;;;10.48;100.00;99325.66;4807892;29;19957;-69
2022/03/17 13:47:58;;;;;;;;;;;;;;;10.46;100.00;99328.84;4808258;29;19952;-69
2022/03/17 13:50:25;;;;;;;;;;;;;;;10.49;100.00;99330.88;4808180;29;20358;-69
2022/03/17 13:53:05;;;;;;;;;;;;;;;10.67;100.00;99310.81;4808355;29;19951;-69
2022/03/17 13:55:34;;;;;;;;;;;;;;;10.52;100.00;99332.13;4808191;29;19957;-69
2022/03/17 13:58:15;;;;;;;;;;;;;;;10.59;100.00;99323.06;4808062;29;19960;-69
2022/03/17 14:00:43;;;;;;;;;;;;;;;10.38;100.00;99327.09;4808396;29;20550;-69
2022/03/17 14:03:17;;;;;;;;;;;;;;;10.45;100.00;99321.63;4806199;29;19949;-69
2022/03/17 14:06:03;;;;;;;;;;;;;;;10.34;100.00;99320.59;4807108;29;19962;-69
2022/03/17 14:08:32;;;;;;;;;;;;;;;10.40;100.00;99316.34;4808998;29;19962;-69
2022/03/17 14:11:04;;;;;;;;;;;;;;;10.51;100.00;99313.75;4808620;29;19970;-69
2022/03/17 14:13:31;;;;;;;;;;;;;;;10.40;100.00;99312.72;4808052;29;19951;-69
2022/03/17 14:15:59;;;;;;;;;;;;;;;10.31;100.00;99309.38;4807912;29;20369;-69
2022/03/17 14:18:27;;;;;;;;;;;;;;;10.33;100.00;99307.81;4808691;29;19992;-69
2022/03/17 14:20:58;;;;;;;;;;;;;;;10.31;100.00;99310.19;4788126;29;19950;-69
2022/03/17 14:26:12;;;;;;;;;;;;;;;10.43;100.00;99301.63;4811690;29;19958;-69
2022/03/17 14:28:40;;;;;;;;;;;;;;;10.43;100.00;99303.59;4808425;29;20239;-69
2022/03/17 14:31:08;;;;;;;;;;;;;;;10.56;100.00;99293.84;4807812;29;20322;-69
2022/03/17 14:33:37;;;;;;;;;;;;;;;10.46;100.00;99300.06;4808102;29;19976;-69
2022/03/17 14:36:05;;;;;;;;;;;;;;;10.50;100.00;99300.94;4807937;29;20335;-69
2022/03/17 14:38:36;;;;;;;;;;;;;;;10.45;100.00;99307.66;4802662;29;19955;-70
2022/03/17 14:41:05;;;;;;;;;;;;;;;10.49;100.00;99302.09;4792711;29;19950;-69
2022/03/17 14:43:32;;;;;;;;;;;;;;;10.48;100.00;99301.31;4824048;29;20255;-70
2022/03/17 14:46:00;;;;;;;;;;;;;;;10.35;100.00;99302.66;4812444;29;19955;-69
2022/03/17 14:48:27;;;;;;;;;;;;;;;10.38;100.00;99307.53;4808159;29;19955;-67
2022/03/17 14:50:55;;;;;;;;;;;;;;;10.36;100.00;99306.28;4798622;29;19974;-69
2022/03/17 14:53:23;;;;;;;;;;;;;;;10.59;100.00;99303.50;4810627;29;19962;-69
2022/03/17 14:55:53;;;;;;;;;;;;;;;10.67;100.00;99294.84;4812736;29;19958;-70
2022/03/17 14:58:20;;;;;;;;;;;;;;;10.63;100.00;99302.38;4805266;29;19957;-70
2022/03/17 15:00:48;;;;;;;;;;;;;;;10.61;100.00;99301.13;4806457;29;19951;-69
2022/03/17 15:03:15;;;;;;;;;;;;;;;10.72;100.00;99296.50;4809543;29;19944;-69
2022/03/17 15:05:42;;;;;;;;;;;;;;;10.59;100.00;99300.69;4808422;29;20372;-69
2022/03/17 15:08:09;;;;;;;;;;;;;;;10.39;100.00;99300.72;4807892;29;20335;-69
2022/03/17 15:10:37;;;;;;;;;;;;;;;10.47;100.00;99305.28;4808596;29;19982;-69
2022/03/17 15:13:04;;;;;;;;;;;;;;;10.48;100.00;99300.50;4808387;29;20246;-69
2022/03/17 15:15:32;;;;;;;;;;;;;;;10.54;100.00;99304.59;4805154;29;19951;-69
2022/03/17 15:17:59;;;;;;;;;;;;;;;10.60;100.00;99296.69;4802547;29;19963;-69
2022/03/17 15:20:26;;;;;;;;;;;;;;;10.58;100.00;99297.09;4802326;29;19950;-69
2022/03/17 15:22:54;;;;;;;;;;;;;;;10.52;100.00;99304.16;4797638;29;19957;-69
2022/03/17 15:25:22;;;;;;;;;;;;;;;10.44;100.00;99300.41;4807950;29;19953;-69
2022/03/17 15:30:37;;;;;;;;;;;;;;;10.33;100.00;99301.41;4810734;29;19966;-69
2022/03/17 15:33:36;;;;;;;;;;;;;;;10.52;100.00;99302.16;4794113;30;19974;-69
2022/03/17 15:36:04;;;;;;;;;;;;;;;10.54;100.00;99299.00;4778302;30;19955;-69
2022/03/17 15:38:31;;;;;;;;;;;;;;;10.45;100.00;99312.44;4799470;29;19958;-69
2022/03/17 15:40:59;;;;;;;;;;;;;;;10.46;100.00;99300.88;4811457;29;19950;-69
2022/03/17 15:43:26;;;;;;;;;;;;;;;10.50;100.00;99312.13;4811743;29;19949;-69
2022/03/17 15:45:54;;;;;;;;;;;;;;;10.61;100.00;99306.72;4809542;29;19952;-69
2022/03/17 15:48:21;;;;;;;;;;;;;;;10.48;100.00;99309.69;4812069;29;19958;-69
2022/03/17 15:50:48;;;;;;;;;;;;;;;10.40;100.00;99313.53;4811692;29;19972;-69
2022/03/17 15:53:16;;;;;;;;;;;;;;;10.47;100.00;99312.84;4811654;29;19957;-69
2022/03/17 15:55:44;;;;;;;;;;;;;;;10.41;100.00;99317.16;4811081;29;19958;-69
2022/03/17 15:58:11;;;;;;;;;;;;;;;10.41;100.00;99319.94;4811064;29;19958;-69
2022/03/17 16:00:39;;;;;;;;;;;;;;;10.38;100.00;99329.06;4806903;29;19952;-69
2022/03/17 16:03:08;;;;;;;;;;;;;;;10.42;100.00;99316.78;4808623;29;19948;-69
2022/03/17 16:05:37;;;;;;;;;;;;;;;10.40;100.00;99321.13;4808413;29;19952;-69
2022/03/17 16:08:05;;;;;;;;;;;;;;;10.36;100.00;99323.06;4808812;29;19959;-69
2022/03/17 16:16:05;;;;;;;;;;;;;;;10.35;100.00;99325.03;4809325;29;20241;-69
2022/03/17 16:18:33;;;;;;;;;;;;;;;10.21;100.00;99330.38;4813107;29;19963;-69
2022/03/17 16:21:00;;;;;;;;;;;;;;;10.14;100.00;99332.22;4811116;29;19958;-69
2022/03/17 16:23:28;;;;;;;;;;;;;;;10.03;100.00;99334.75;4811183;29;20367;-69
2022/03/17 16:25:56;;;;;;;;;;;;;;;10.19;100.00;99340.28;4810163;29;19949;-69
2022/03/17 16:28:23;;;;;;;;;;;;;;;10.18;100.00;99344.25;4811374;29;20549;-69
2022/03/17 16:30:51;;;;;;;;;;;;;;;10.24;100.00;99346.41;4810837;29;19973;-69
2022/03/17 16:33:18;;;;;;;;;;;;;;;10.15;100.00;99348.59;4800769;29;19952;-69
2022/03/17 16:35:46;;;;;;;;;;;;;;;10.16;100.00;99346.63;4809813;29;19953;-69
2022/03/17 16:38:14;;;;;;;;;;;;;;;10.18;100.00;99353.47;4808743;29;19948;-69
2022/03/17 16:40:42;;;;;;;;;;;;;;;10.08;100.00;99344.81;4800867;29;19952;-69
2022/03/17 16:43:09;;;;;;;;;;;;;;;10.14;100.00;99352.59;4803212;29;19954;-69
2022/03/17 16:45:37;;;;;;;;;;;;;;;10.11;100.00;99356.09;4794761;29;20342;-69
2022/03/17 16:48:06;;;;;;;;;;;;;;;10.06;100.00;99355.56;4791521;30;19949;-70
2022/03/17 16:50:35;;;;;;;;;;;;;;;10.04;100.00;99352.34;4805580;29;19969;-69
2022/03/17 16:53:02;;;;;;;;;;;;;;;10.02;100.00;99358.31;4809143;29;19952;-69
2022/03/17 16:55:31;;;;;;;;;;;;;;;10.00;100.00;99362.66;4815791;29;20036;-69
2022/03/17 16:58:00;;;;;;;;;;;;;;;10.07;100.00;99349.63;4827344;29;19958;-69
2022/03/17 17:00:28;;;;;;;;;;;;;;;9.93;100.00;99354.91;4827443;29;19950;-69
2022/03/17 17:02:56;;;;;;;;;;;;;;;9.88;100.00;99356.00;4827320;29;19963;-69
2022/03/17 17:05:23;;;;;;;;;;;;;;;9.93;100.00;99350.13;4826864;29;19955;-69
2022/03/17 17:07:51;;;;;;;;;;;;;;;9.91;100.00;99355.28;4827009;29;20269;-69
2022/03/17 17:10:19;;;;;;;;;;;;;;;9.93;100.00;99363.28;4827439;29;20258;-69
2022/03/17 17:12:48;;;;;;;;;;;;;;;9.85;100.00;99367.13;4827582;29;19972;-69
2022/03/17 17:15:16;;;;;;;;;;;;;;;9.81;100.00;99364.25;4825855;29;19956;-69
2022/03/17 17:17:44;;;;;;;;;;;;;;;9.80;100.00;99367.41;4825926;29;19956;-69
2022/03/17 17:20:11;;;;;;;;;;;;;;;9.85;100.00;99370.72;4826724;29;20336;-69
2022/03/17 17:30:58;;;;;;;;;;;;;;;9.73;100.00;99381.25;4808019;29;19995;-69
2022/03/17 17:33:26;;;;;;;;;;;;;;;9.71;100.00;99386.34;4809110;29;19950;-69
2022/03/17 17:35:54;;;;;;;;;;;;;;;9.73;100.00;99382.03;4808656;29;19948;-69
2022/03/17 17:38:22;;;;;;;;;;;;;;;9.71;100.00;99383.56;4796361;29;19951;-69
2022/03/17 17:40:50;;;;;;;;;;;;;;;9.73;100.00;99390.41;4789263;29;19959;-69
2022/03/17 17:43:21;;;;;;;;;;;;;;;9.62;100.00;99394.16;4800951;29;19954;-69
2022/03/17 17:45:51;;;;;;;;;;;;;;;9.64;100.00;99383.41;4793085;29;19950;-69
2022/03/17 17:48:32;;;;;;;;;;;;;;;9.74;100.00;99392.03;4809038;29;20341;-69
2022/03/17 17:51:00;;;;;;;;;;;;;;;9.64;100.00;99398.19;4808253;29;19986;-69
2022/03/17 17:53:28;;;;;;;;;;;;;;;9.66;100.00;99390.25;4808963;29;19958;-69
2022/03/17 17:55:55;;;;;;;;;;;;;;;9.68;100.00;99396.28;4808529;29;19949;-69
2022/03/17 17:58:23;;;;;;;;;;;;;;;9.61;100.00;99393.31;4808313;29;19958;-69
2022/03/17 18:00:50;;;;;;;;;;;;;;;9.58;100.00;99401.66;4804789;29;19953;-69
2022/03/17 18:03:18;;;;;;;;;;;;;;;9.56;100.00;99402.00;4790307;30;19949;-69
2022/03/17 18:05:45;;;;;;;;;;;;;;;9.60;100.00;99404.88;4790573;29;19956;-69
2022/03/17 18:08:13;;;;;;;;;;;;;;;9.57;100.00;99408.38;4791353;30;19948;-69
2022/03/17 18:10:40;;;;;;;;;;;;;;;9.56;100.00;99404.78;4790911;29;19959;-69
2022/03/17 18:13:07;;;;;;;;;;;;;;;9.57;100.00;99409.22;4790303;30;19979;-69
2022/03/17 18:15:39;;;;;;;;;;;;;;;9.52;100.00;99422.63;4790726;30;19950;-69
2022/03/17 18:18:07;;;;;;;;;;;;;;;9.54;100.00;99409.09;4790781;30;19986;-69
2022/03/17 18:20:35;;;;;;;;;;;;;;;9.48;100.00;99413.38;4790212;30;20373;-69
2022/03/17 18:23:03;;;;;;;;;;;;;;;9.47;100.00;99418.13;4774587;30;19953;-69
2022/03/17 18:25:31;;;;;;;;;;;;;;;9.46;100.00;99426.91;4790417;30;19971;-69
2022/03/17 18:28:00;;;;;;;;;;;;;;;9.46;100.00;99418.50;4790495;30;20251;-69
2022/03/17 18:30:27;;;;;;;;;;;;;;;9.42;100.00;99423.19;4790870;29;19947;-69
2022/03/17 18:32:55;;;;;;;;;;;;;;;9.43;100.00;99430.41;4790350;30;19972;-70
2022/03/17 18:35:23;;;;;;;;;;;;;;;9.41;100.00;99427.97;4790442;30;19981;-69
2022/03/17 18:37:52;;;;;;;;;;;;;;;9.41;100.00;99429.97;4790533;30;19962;-69
2022/03/17 18:40:21;;;;;;;;;;;;;;;9.44;100.00;99424.44;4790409;30;19948;-69
2022/03/17 18:42:49;;;;;;;;;;;;;;;9.42;100.00;99431.56;4790226;30;20249;-69
2022/03/17 18:45:17;;;;;;;;;;;;;;;9.43;100.00;99431.22;4790664;30;19961;-69
2022/03/17 18:47:45;;;;;;;;;;;;;;;9.40;100.00;99439.50;4774562;30;19949;-69
2022/03/17 18:50:13;;;;;;;;;;;;;;;9.45;100.00;99433.63;4789932;30;20349;-69
2022/03/17 18:52:52;;;;;;;;;;;;;;;9.39;100.00;99441.47;4790209;30;19977;-69
2022/03/17 18:55:20;;;;;;;;;;;;;;;9.41;100.00;99450.31;4790302;30;19959;-69
2022/03/17 18:57:49;;;;;;;;;;;;;;;9.37;100.00;99454.97;4790401;30;20030;-69
2022/03/17 19:00:17;;;;;;;;;;;;;;;9.37;100.00;99449.41;4790519;30;19957;-69
2022/03/17 19:02:45;;;;;;;;;;;;;;;9.40;100.00;99448.69;4792703;29;19956;-69
2022/03/17 19:05:12;;;;;;;;;;;;;;;9.33;100.00;99451.31;4793454;30;19953;-69
2022/03/17 19:07:40;;;;;;;;;;;;;;;9.35;100.00;99453.72;4793385;30;19955;-69
2022/03/17 19:10:08;;;;;;;;;;;;;;;9.37;100.00;99454.97;4793790;30;19952;-69
2022/03/17 19:12:35;;;;;;;;;;;;;;;9.44;100.00;99448.78;4793672;30;20794;-69
2022/03/17 19:15:03;;;;;;;;;;;;;;;9.48;100.00;99450.47;4793435;30;20078;-69
2022/03/17 19:17:31;;;;;;;;;;;;;;;9.45;100.00;99453.19;4794144;29;19958;-69
2022/03/17 19:20:00;;;;;;;;;;;;;;;9.39;100.00;99458.22;4794111;30;20240;-69
2022/03/17 19:22:27;;;;;;;;;;;;;;;9.41;100.00;99464.28;4793318;30;20247;-69
2022/03/17 19:24:57;;;;;;;;;;;;;;;9.43;100.00;99458.31;4806360;29;19949;-69
2022/03/17 19:27:25;;;;;;;;;;;;;;;9.43;100.00;99464.72;4811455;29;19954;-69
2022/03/17 19:29:55;;;;;;;;;;;;;;;9.42;100.00;99474.25;4811601;29;19948;-69
2022/03/17 19:32:24;;;;;;;;;;;;;;;9.45;100.00;99472.72;4810959;29;19972;-69
2022/03/17 19:34:52;;;;;;;;;;;;;;;9.46;100.00;99480.75;4811243;29;19977;-69
2022/03/17 19:37:20;;;;;;;;;;;;;;;9.47;100.00;99471.19;4811019;29;19950;-69
2022/03/17 19:39:50;;;;;;;;;;;;;;;9.48;100.00;99480.38;4808773;29;19951;-69
2022/03/17 19:42:22;;;;;;;;;;;;;;;9.58;100.00;99482.63;4804226;29;19960;-69
2022/03/17 19:44:49;;;;;;;;;;;;;;;9.54;100.00;99481.72;4810610;29;19954;-69
2022/03/17 19:47:17;;;;;;;;;;;;;;;9.57;100.00;99492.16;4810983;29;19951;-69
2022/03/17 19:52:31;;;;;;;;;;;;;;;9.55;100.00;99495.31;4810897;29;19970;-69
2022/03/17 19:54:58;;;;;;;;;;;;;;;9.59;100.00;99500.97;4811145;29;19955;-69
2022/03/17 19:57:26;;;;;;;;;;;;;;;9.58;100.00;99502.97;4810890;29;20368;-69
2022/03/17 19:59:54;;;;;;;;;;;;;;;9.57;100.00;99506.94;4810964;29;19951;-69
2022/03/17 20:02:21;;;;;;;;;;;;;;;9.56;100.00;99508.09;4810481;29;20251;-69
2022/03/17 20:05:09;;;;;;;;;;;;;;;9.56;100.00;99516.47;4809496;29;19976;-70
2022/03/17 20:07:36;;;;;;;;;;;;;;;9.55;100.00;99523.25;4807281;29;19954;-67
2022/03/17 20:10:06;;;;;;;;;;;;;;;9.54;100.00;99527.19;4794039;29;19956;-68
2022/03/17 20:15:20;;;;;;;;;;;;;;;9.57;100.00;99520.91;4807672;29;19951;-69